MMPS

Puerto Escondido International Airport

Airport
ICAO code
MMPS
IATA Code
PXM
Summary
ICAO Region
CARSAM
ICAO Territory
Location

Puerto Escondido, Oaxaca

Serving
Puerto Escondido
Elevation
294 ft
Coordinates
15° 52' 37" N , 97° 5' 21" W
KCC
Metar
MMPS 150043Z 01005KT 10SM SCT030 BKN100 BKN200 26/26 A2981 RMK 8/463 HZY

Puerto Escondido International Airport is an airport located at Puerto Escondido in the state of Oaxaca in Mexico.

Climatology

Tropical Savannah Climate (Köppen climate classification Aw)

Runways

Designator Length Width Surface Rops
9/27 2300 45 ASP No/No

Airport map

Aerial View

SKYbrary Partners:

Safety knowledge contributed by: